sensor_id;sensor_type;location;lat;lon;timestamp;pressure;altitude;pressure_sealevel;temperature;humidity
7836;BME280;3963;42.658;23.298;2023-06-04T00:00:15;81303.53;;;-144.44;100.00
7836;BME280;3963;42.658;23.298;2023-06-04T00:02:41;82326.28;;;-144.44;100.00
7836;BME280;3963;42.658;23.298;2023-06-04T00:05:09;80792.25;;;-144.44;100.00
7836;BME280;3963;42.658;23.298;2023-06-04T00:07:37;79514.41;;;-144.44;100.00
7836;BME280;3963;42.658;23.298;2023-06-04T00:10:04;79514.41;;;-144.44;100.00
7836;BME280;3963;42.658;23.298;2023-06-04T00:12:31;80025.50;;;-144.44;100.00
7836;BME280;3963;42.658;23.298;2023-06-04T00:14:58;80536.66;;;-144.44;100.00
7836;BME280;3963;42.658;23.298;2023-06-04T00:17:25;78237.03;;;-144.44;100.00
7836;BME280;3963;42.658;23.298;2023-06-04T00:19:53;77470.84;;;-144.44;100.00
7836;BME280;3963;42.658;23.298;2023-06-04T00:22:21;77981.63;;;-144.44;100.00
7836;BME280;3963;42.658;23.298;2023-06-04T00:24:49;77981.63;;;-144.44;100.00
7836;BME280;3963;42.658;23.298;2023-06-04T00:27:16;78747.94;;;-144.44;100.00
7836;BME280;3963;42.658;23.298;2023-06-04T00:29:43;77981.63;;;-144.44;100.00
7836;BME280;3963;42.658;23.298;2023-06-04T00:32:10;77215.47;;;-144.44;100.00
7836;BME280;3963;42.658;23.298;2023-06-04T00:34:36;76194.22;;;-144.44;100.00
7836;BME280;3963;42.658;23.298;2023-06-04T00:37:04;78237.03;;;-144.44;100.00
7836;BME280;3963;42.658;23.298;2023-06-04T00:39:32;79769.94;;;-144.44;100.00
7836;BME280;3963;42.658;23.298;2023-06-04T00:41:59;79003.41;;;-144.44;100.00
7836;BME280;3963;42.658;23.298;2023-06-04T00:44:26;78492.47;;;-144.44;100.00
7836;BME280;3963;42.658;23.298;2023-06-04T00:46:54;79769.94;;;-144.44;100.00
7836;BME280;3963;42.658;23.298;2023-06-04T00:49:20;81559.19;;;-144.44;100.00
7836;BME280;3963;42.658;23.298;2023-06-04T00:51:47;82582.03;;;-144.44;100.00
7836;BME280;3963;42.658;23.298;2023-06-04T00:54:15;83861.00;;;-144.44;100.00
7836;BME280;3963;42.658;23.298;2023-06-04T00:56:44;83605.19;;;-144.44;100.00
7836;BME280;3963;42.658;23.298;2023-06-04T00:59:11;81559.19;;;-144.44;100.00
7836;BME280;3963;42.658;23.298;2023-06-04T01:01:44;82837.78;;;-144.44;100.00
7836;BME280;3963;42.658;23.298;2023-06-04T01:04:16;83093.56;;;-144.44;100.00
7836;BME280;3963;42.658;23.298;2023-06-04T01:06:49;83349.38;;;-144.44;100.00
7836;BME280;3963;42.658;23.298;2023-06-04T01:09:16;83861.00;;;-144.44;100.00
7836;BME280;3963;42.658;23.298;2023-06-04T01:11:46;81559.19;;;-144.44;100.00
7836;BME280;3963;42.658;23.298;2023-06-04T01:14:13;78492.47;;;-144.44;100.00
7836;BME280;3963;42.658;23.298;2023-06-04T01:16:46;78747.94;;;-144.44;100.00
7836;BME280;3963;42.658;23.298;2023-06-04T01:19:31;72877.28;;;-144.44;100.00
7836;BME280;3963;42.658;23.298;2023-06-04T01:22:04;69818.31;;;-144.44;100.00
7836;BME280;3963;42.658;23.298;2023-06-04T01:24:35;68544.53;;;-144.44;100.00
7836;BME280;3963;42.658;23.298;2023-06-04T01:27:06;71857.31;;;-144.44;100.00
7836;BME280;3963;42.658;23.298;2023-06-04T01:29:34;73132.31;;;-144.44;100.00
7836;BME280;3963;42.658;23.298;2023-06-04T01:32:02;75173.28;;;-144.44;100.00
7836;BME280;3963;42.658;23.298;2023-06-04T01:34:30;77215.47;;;-144.44;100.00
7836;BME280;3963;42.658;23.298;2023-06-04T01:36:57;78492.47;;;-144.44;100.00
7836;BME280;3963;42.658;23.298;2023-06-04T01:39:24;79514.41;;;-144.44;100.00
7836;BME280;3963;42.658;23.298;2023-06-04T01:41:50;80792.25;;;-144.44;100.00
7836;BME280;3963;42.658;23.298;2023-06-04T01:44:18;82070.56;;;-144.44;100.00
7836;BME280;3963;42.658;23.298;2023-06-04T01:46:45;84884.53;;;-144.44;100.00
7836;BME280;3963;42.658;23.298;2023-06-04T01:49:12;87444.69;;;-144.44;100.00
7836;BME280;3963;42.658;23.298;2023-06-04T01:51:38;89494.19;;;-144.44;100.00
7836;BME280;3963;42.658;23.298;2023-06-04T01:54:05;91288.47;;;-144.44;100.00
7836;BME280;3963;42.658;23.298;2023-06-04T01:56:32;92570.69;;;-144.44;100.00
7836;BME280;3963;42.658;23.298;2023-06-04T01:58:59;93340.25;;;-144.44;100.00
7836;BME280;3963;42.658;23.298;2023-06-04T02:01:27;92314.22;;;-144.44;100.00
7836;BME280;3963;42.658;23.298;2023-06-04T02:03:54;91032.09;;;-144.44;100.00
7836;BME280;3963;42.658;23.298;2023-06-04T02:06:21;90775.72;;;-144.44;100.00
7836;BME280;3963;42.658;23.298;2023-06-04T02:08:50;90519.38;;;-144.44;100.00
7836;BME280;3963;42.658;23.298;2023-06-04T02:11:19;88725.47;;;-144.44;100.00
7836;BME280;3963;42.658;23.298;2023-06-04T02:13:46;89237.94;;;-144.44;100.00
7836;BME280;3963;42.658;23.298;2023-06-04T02:16:13;87956.94;;;-144.44;100.00
7836;BME280;3963;42.658;23.298;2023-06-04T02:18:41;83605.19;;;-144.44;100.00
7836;BME280;3963;42.658;23.298;2023-06-04T02:21:08;83605.19;;;-144.44;100.00
7836;BME280;3963;42.658;23.298;2023-06-04T02:23:34;82837.78;;;-144.44;100.00
7836;BME280;3963;42.658;23.298;2023-06-04T02:26:01;82582.03;;;-144.44;100.00
7836;BME280;3963;42.658;23.298;2023-06-04T02:28:28;83349.38;;;-144.44;100.00
7836;BME280;3963;42.658;23.298;2023-06-04T02:30:55;84372.75;;;-144.44;100.00
7836;BME280;3963;42.658;23.298;2023-06-04T02:33:22;84884.53;;;-144.44;100.00
7836;BME280;3963;42.658;23.298;2023-06-04T02:35:50;84628.63;;;-144.44;100.00
7836;BME280;3963;42.658;23.298;2023-06-04T02:38:17;83605.19;;;-144.44;100.00
7836;BME280;3963;42.658;23.298;2023-06-04T02:40:44;84372.75;;;-144.44;100.00
7836;BME280;3963;42.658;23.298;2023-06-04T02:43:10;85396.41;;;-144.44;100.00
7836;BME280;3963;42.658;23.298;2023-06-04T02:45:37;83349.38;;;-144.44;100.00
7836;BME280;3963;42.658;23.298;2023-06-04T02:48:04;83861.00;;;-144.44;100.00
7836;BME280;3963;42.658;23.298;2023-06-04T02:50:31;83349.38;;;-144.44;100.00
7836;BME280;3963;42.658;23.298;2023-06-04T02:52:59;83605.19;;;-144.44;100.00
7836;BME280;3963;42.658;23.298;2023-06-04T02:55:25;83605.19;;;-144.44;100.00
7836;BME280;3963;42.658;23.298;2023-06-04T02:57:52;84116.88;;;-144.44;100.00
7836;BME280;3963;42.658;23.298;2023-06-04T03:00:19;83349.38;;;-144.44;100.00
7836;BME280;3963;42.658;23.298;2023-06-04T03:02:47;81303.53;;;-144.44;100.00
7836;BME280;3963;42.658;23.298;2023-06-04T03:05:15;82582.03;;;-144.44;100.00
7836;BME280;3963;42.658;23.298;2023-06-04T03:07:44;82837.78;;;-144.44;100.00
7836;BME280;3963;42.658;23.298;2023-06-04T03:10:13;82582.03;;;-144.44;100.00
7836;BME280;3963;42.658;23.298;2023-06-04T03:12:41;81814.88;;;-144.44;100.00
7836;BME280;3963;42.658;23.298;2023-06-04T03:15:08;81047.88;;;-144.44;100.00
7836;BME280;3963;42.658;23.298;2023-06-04T03:17:36;82837.78;;;-144.44;100.00
7836;BME280;3963;42.658;23.298;2023-06-04T03:20:03;83605.19;;;-144.44;100.00
7836;BME280;3963;42.658;23.298;2023-06-04T03:22:31;83605.19;;;-144.44;100.00
7836;BME280;3963;42.658;23.298;2023-06-04T03:24:59;83605.19;;;-144.44;100.00
7836;BME280;3963;42.658;23.298;2023-06-04T03:27:27;83861.00;;;-144.44;100.00
7836;BME280;3963;42.658;23.298;2023-06-04T03:29:54;84628.63;;;-144.44;100.00
7836;BME280;3963;42.658;23.298;2023-06-04T03:32:21;85140.47;;;-144.44;100.00
7836;BME280;3963;42.658;23.298;2023-06-04T03:34:48;85652.38;;;-144.44;100.00
7836;BME280;3963;42.658;23.298;2023-06-04T03:37:16;86164.38;;;-144.44;100.00
7836;BME280;3963;42.658;23.298;2023-06-04T03:39:43;85396.41;;;-144.44;100.00
7836;BME280;3963;42.658;23.298;2023-06-04T03:42:10;85908.38;;;-144.44;100.00
7836;BME280;3963;42.658;23.298;2023-06-04T03:44:38;86164.38;;;-144.44;100.00
7836;BME280;3963;42.658;23.298;2023-06-04T03:47:05;86676.44;;;-144.44;100.00
7836;BME280;3963;42.658;23.298;2023-06-04T03:49:32;87700.81;;;-144.44;100.00
7836;BME280;3963;42.658;23.298;2023-06-04T03:51:59;88981.69;;;-144.44;100.00
7836;BME280;3963;42.658;23.298;2023-06-04T03:54:25;88981.69;;;-144.44;100.00
7836;BME280;3963;42.658;23.298;2023-06-04T03:56:52;89237.94;;;-144.44;100.00
7836;BME280;3963;42.658;23.298;2023-06-04T03:59:19;90006.75;;;-144.44;100.00
7836;BME280;3963;42.658;23.298;2023-06-04T04:01:47;90006.75;;;-144.44;100.00
7836;BME280;3963;42.658;23.298;2023-06-04T04:04:14;90519.38;;;-144.44;100.00
7836;BME280;3963;42.658;23.298;2023-06-04T04:06:41;91032.09;;;-144.44;100.00
7836;BME280;3963;42.658;23.298;2023-06-04T04:09:08;91032.09;;;-144.44;100.00
7836;BME280;3963;42.658;23.298;2023-06-04T04:11:34;91032.09;;;-144.44;100.00
7836;BME280;3963;42.658;23.298;2023-06-04T04:14:01;90263.06;;;-144.44;100.00
7836;BME280;3963;42.658;23.298;2023-06-04T04:16:28;88213.09;;;-144.44;100.00
7836;BME280;3963;42.658;23.298;2023-06-04T04:18:56;88213.09;;;-144.44;100.00
7836;BME280;3963;42.658;23.298;2023-06-04T04:21:22;87956.94;;;-144.44;100.00
7836;BME280;3963;42.658;23.298;2023-06-04T04:23:50;87956.94;;;-144.44;100.00
7836;BME280;3963;42.658;23.298;2023-06-04T04:26:17;87700.81;;;-144.44;100.00
7836;BME280;3963;42.658;23.298;2023-06-04T04:28:44;87444.69;;;-144.44;100.00
7836;BME280;3963;42.658;23.298;2023-06-04T04:31:11;87444.69;;;-144.44;100.00
7836;BME280;3963;42.658;23.298;2023-06-04T04:33:38;86932.50;;;-144.44;100.00
7836;BME280;3963;42.658;23.298;2023-06-04T04:36:07;84628.63;;;-144.44;100.00
7836;BME280;3963;42.658;23.298;2023-06-04T04:38:38;82326.28;;;-144.44;100.00
7836;BME280;3963;42.658;23.298;2023-06-04T04:41:05;82837.78;;;-144.44;100.00
7836;BME280;3963;42.658;23.298;2023-06-04T04:43:34;82582.03;;;-144.44;100.00
7836;BME280;3963;42.658;23.298;2023-06-04T04:46:01;82326.28;;;-144.44;100.00
7836;BME280;3963;42.658;23.298;2023-06-04T04:48:28;82326.28;;;-144.44;100.00
7836;BME280;3963;42.658;23.298;2023-06-04T04:50:55;80792.25;;;-144.44;100.00
7836;BME280;3963;42.658;23.298;2023-06-04T04:53:23;80281.06;;;-144.44;100.00
7836;BME280;3963;42.658;23.298;2023-06-04T04:55:50;82070.56;;;-144.44;100.00
7836;BME280;3963;42.658;23.298;2023-06-04T04:58:17;82326.28;;;-144.44;100.00
7836;BME280;3963;42.658;23.298;2023-06-04T05:00:44;81047.88;;;-144.44;100.00
7836;BME280;3963;42.658;23.298;2023-06-04T05:03:11;77981.63;;;-144.44;100.00
7836;BME280;3963;42.658;23.298;2023-06-04T05:05:37;76194.22;;;-144.44;100.00
7836;BME280;3963;42.658;23.298;2023-06-04T05:08:04;74918.09;;;-144.44;100.00
7836;BME280;3963;42.658;23.298;2023-06-04T05:10:33;74152.66;;;-144.44;100.00
7836;BME280;3963;42.658;23.298;2023-06-04T05:13:01;73387.38;;;-144.44;100.00
7836;BME280;3963;42.658;23.298;2023-06-04T05:15:30;67780.53;;;-144.44;100.00
7836;BME280;3963;42.658;23.298;2023-06-04T05:17:57;65743.94;;;-144.44;100.00
7836;BME280;3963;42.658;23.298;2023-06-04T05:20:26;59296.19;;;-144.44;100.00
7836;BME280;3963;42.658;23.298;2023-06-04T05:22:52;58732.66;;;-144.44;100.00
7836;BME280;3963;42.658;23.298;2023-06-04T05:25:20;57294.44;;;-144.44;100.00
7836;BME280;3963;42.658;23.298;2023-06-04T05:27:49;56037.25;;;-144.44;100.00
7836;BME280;3963;42.658;23.298;2023-06-04T05:30:16;52862.63;;;-144.44;100.00
7836;BME280;3963;42.658;23.298;2023-06-04T05:32:43;53080.53;;;-144.44;100.00
7836;BME280;3963;42.658;23.298;2023-06-04T05:35:09;51149.75;;;-144.44;100.00
7836;BME280;3963;42.658;23.298;2023-06-04T05:37:38;50134.31;;;-144.44;100.00
7836;BME280;3963;42.658;23.298;2023-06-04T05:40:06;50227.31;;;-144.44;100.00
7836;BME280;3963;42.658;23.298;2023-06-04T05:42:34;49774.13;;;-144.44;100.00
7836;BME280;3963;42.658;23.298;2023-06-04T05:45:02;49277.44;;;-144.44;100.00
7836;BME280;3963;42.658;23.298;2023-06-04T05:47:29;49320.97;;;-144.44;100.00
7836;BME280;3963;42.658;23.298;2023-06-04T05:49:57;49352.63;;;-144.44;100.00
7836;BME280;3963;42.658;23.298;2023-06-04T05:52:23;49621.75;;;-144.44;100.00
7836;BME280;3963;42.658;23.298;2023-06-04T05:54:50;49671.22;;;-144.44;100.00
7836;BME280;3963;42.658;23.298;2023-06-04T05:57:17;49754.34;;;-144.44;100.00
7836;BME280;3963;42.658;23.298;2023-06-04T05:59:44;49778.09;;;-144.44;100.00
7836;BME280;3963;42.658;23.298;2023-06-04T06:02:12;48836.25;;;-144.44;100.00
7836;BME280;3963;42.658;23.298;2023-06-04T06:04:40;48571.16;;;-144.44;100.00
7836;BME280;3963;42.658;23.298;2023-06-04T06:07:07;48163.66;;;-144.44;100.00
7836;BME280;3963;42.658;23.298;2023-06-04T06:09:33;48308.06;;;-144.44;100.00
7836;BME280;3963;42.658;23.298;2023-06-04T06:12:01;48387.19;;;-144.44;100.00
7836;BME280;3963;42.658;23.298;2023-06-04T06:14:28;48244.75;;;-144.44;100.00
7836;BME280;3963;42.658;23.298;2023-06-04T06:16:55;47952.03;;;-144.44;100.00
7836;BME280;3963;42.658;23.298;2023-06-04T06:19:23;48134.00;;;-144.44;100.00
7836;BME280;3963;42.658;23.298;2023-06-04T06:21:50;48278.41;;;-144.44;100.00
7836;BME280;3963;42.658;23.298;2023-06-04T06:24:16;47550.56;;;-144.44;100.00
7836;BME280;3963;42.658;23.298;2023-06-04T06:26:43;47750.28;;;-144.44;100.00
7836;BME280;3963;42.658;23.298;2023-06-04T06:29:10;47797.75;;;-144.44;100.00
7836;BME280;3963;42.658;23.298;2023-06-04T06:31:36;47730.53;;;-144.44;100.00
7836;BME280;3963;42.658;23.298;2023-06-04T06:34:03;47398.28;;;-144.44;100.00
7836;BME280;3963;42.658;23.298;2023-06-04T06:36:32;47166.91;;;-144.44;100.00
7836;BME280;3963;42.658;23.298;2023-06-04T06:38:59;46872.31;;;-144.44;100.00
7836;BME280;3963;42.658;23.298;2023-06-04T06:41:26;46769.50;;;-144.44;100.00
7836;BME280;3963;42.658;23.298;2023-06-04T06:43:53;46652.84;;;-144.44;100.00
7836;BME280;3963;42.658;23.298;2023-06-04T06:46:20;46599.47;;;-144.44;100.00
7836;BME280;3963;42.658;23.298;2023-06-04T06:48:47;46561.88;;;-144.44;100.00
7836;BME280;3963;42.658;23.298;2023-06-04T06:51:14;46583.63;;;-144.44;100.00
7836;BME280;3963;42.658;23.298;2023-06-04T06:53:43;46542.13;;;-144.44;100.00
7836;BME280;3963;42.658;23.298;2023-06-04T06:56:10;46563.88;;;-144.44;100.00
7836;BME280;3963;42.658;23.298;2023-06-04T06:58:37;46524.31;;;-144.44;100.00
7836;BME280;3963;42.658;23.298;2023-06-04T07:01:04;46314.78;;;-144.44;100.00
7836;BME280;3963;42.658;23.298;2023-06-04T07:03:31;46316.75;;;-144.44;100.00
7836;BME280;3963;42.658;23.298;2023-06-04T07:05:58;46378.03;;;-144.44;100.00
7836;BME280;3963;42.658;23.298;2023-06-04T07:08:25;46380.00;;;-144.44;100.00
7836;BME280;3963;42.658;23.298;2023-06-04T07:10:53;46336.50;;;-144.44;100.00
7836;BME280;3963;42.658;23.298;2023-06-04T07:13:20;46370.13;;;-144.44;100.00
7836;BME280;3963;42.658;23.298;2023-06-04T07:15:46;46318.72;;;-144.44;100.00
7836;BME280;3963;42.658;23.298;2023-06-04T07:18:13;46158.59;;;-144.44;100.00
7836;BME280;3963;42.658;23.298;2023-06-04T07:20:40;46075.56;;;-144.44;100.00
7836;BME280;3963;42.658;23.298;2023-06-04T07:23:07;46014.28;;;-144.44;100.00
7836;BME280;3963;42.658;23.298;2023-06-04T07:25:33;45982.66;;;-144.44;100.00
7836;BME280;3963;42.658;23.298;2023-06-04T07:28:04;45931.28;;;-144.44;100.00
7836;BME280;3963;42.658;23.298;2023-06-04T07:30:31;45919.41;;;-144.44;100.00
7836;BME280;3963;42.658;23.298;2023-06-04T07:32:58;45923.38;;;-144.44;100.00
7836;BME280;3963;42.658;23.298;2023-06-04T07:35:25;45864.06;;;-144.44;100.00
7836;BME280;3963;42.658;23.298;2023-06-04T07:37:52;45852.22;;;-144.44;100.00
7836;BME280;3963;42.658;23.298;2023-06-04T07:40:18;45891.75;;;-144.44;100.00
7836;BME280;3963;42.658;23.298;2023-06-04T07:42:46;45933.25;;;-144.44;100.00
7836;BME280;3963;42.658;23.298;2023-06-04T07:45:14;45883.84;;;-144.44;100.00
7836;BME280;3963;42.658;23.298;2023-06-04T07:47:42;45897.66;;;-144.44;100.00
7836;BME280;3963;42.658;23.298;2023-06-04T07:50:09;45854.19;;;-144.44;100.00
7836;BME280;3963;42.658;23.298;2023-06-04T07:52:36;45814.66;;;-144.44;100.00
7836;BME280;3963;42.658;23.298;2023-06-04T07:55:03;45860.13;;;-144.44;100.00
7836;BME280;3963;42.658;23.298;2023-06-04T07:57:30;45937.22;;;-144.44;100.00
7836;BME280;3963;42.658;23.298;2023-06-04T07:59:57;45986.63;;;-144.44;100.00
7836;BME280;3963;42.658;23.298;2023-06-04T08:02:26;45919.41;;;-144.44;100.00
7836;BME280;3963;42.658;23.298;2023-06-04T08:04:52;45903.59;;;-144.44;100.00
7836;BME280;3963;42.658;23.298;2023-06-04T08:07:19;45911.50;;;-144.44;100.00
7836;BME280;3963;42.658;23.298;2023-06-04T08:09:46;45933.25;;;-144.44;100.00
7836;BME280;3963;42.658;23.298;2023-06-04T08:12:13;45828.50;;;-144.44;100.00
7836;BME280;3963;42.658;23.298;2023-06-04T08:14:41;45891.75;;;-144.44;100.00
7836;BME280;3963;42.658;23.298;2023-06-04T08:17:08;45806.75;;;-144.44;100.00
7836;BME280;3963;42.658;23.298;2023-06-04T08:19:36;45844.31;;;-144.44;100.00
7836;BME280;3963;42.658;23.298;2023-06-04T08:22:03;45745.47;;;-144.44;100.00
7836;BME280;3963;42.658;23.298;2023-06-04T08:24:31;45785.00;;;-144.44;100.00
7836;BME280;3963;42.658;23.298;2023-06-04T08:26:58;45741.53;;;-144.44;100.00
7836;BME280;3963;42.658;23.298;2023-06-04T08:29:25;45771.16;;;-144.44;100.00
7836;BME280;3963;42.658;23.298;2023-06-04T08:31:52;45743.50;;;-144.44;99.28
7836;BME280;3963;42.658;23.298;2023-06-04T08:34:18;45715.81;;;-144.44;98.52
7836;BME280;3963;42.658;23.298;2023-06-04T08:36:47;45666.41;;;-144.44;97.55
7836;BME280;3963;42.658;23.298;2023-06-04T08:39:14;45642.69;;;-144.44;96.75
7836;BME280;3963;42.658;23.298;2023-06-04T08:41:43;45680.25;;;-144.44;98.79
7836;BME280;3963;42.658;23.298;2023-06-04T08:44:11;45684.19;;;-144.44;98.43
7836;BME280;3963;42.658;23.298;2023-06-04T08:46:38;45660.47;;;-144.44;97.40
7836;BME280;3963;42.658;23.298;2023-06-04T08:49:06;45686.19;;;-144.44;97.17
7836;BME280;3963;42.658;23.298;2023-06-04T08:51:35;45620.94;;;-144.44;94.50
7836;BME280;3963;42.658;23.298;2023-06-04T08:54:05;45555.72;;;-144.44;93.84
7836;BME280;3963;42.658;23.298;2023-06-04T08:56:33;45532.00;;;-144.44;94.72
7836;BME280;3963;42.658;23.298;2023-06-04T08:59:01;45563.63;;;-144.44;95.58
7836;BME280;3963;42.658;23.298;2023-06-04T09:01:28;45535.97;;;-144.44;95.71
7836;BME280;3963;42.658;23.298;2023-06-04T09:03:57;45555.72;;;-144.44;95.09
7836;BME280;3963;42.658;23.298;2023-06-04T09:06:25;45543.88;;;-144.44;96.86
7836;BME280;3963;42.658;23.298;2023-06-04T09:08:53;45581.44;;;-144.44;98.43
7836;BME280;3963;42.658;23.298;2023-06-04T09:11:26;45603.16;;;-144.44;98.92
7836;BME280;3963;42.658;23.298;2023-06-04T09:13:58;45563.63;;;-144.44;95.55
7836;BME280;3963;42.658;23.298;2023-06-04T09:16:25;45510.28;;;-144.44;94.24
7836;BME280;3963;42.658;23.298;2023-06-04T09:18:53;45528.06;;;-144.44;93.83
7836;BME280;3963;42.658;23.298;2023-06-04T09:21:20;45496.44;;;-144.44;93.99
7836;BME280;3963;42.658;23.298;2023-06-04T09:23:47;45508.28;;;-144.44;94.37
7836;BME280;3963;42.658;23.298;2023-06-04T09:26:14;45522.13;;;-144.44;94.14
7836;BME280;3963;42.658;23.298;2023-06-04T09:28:43;45510.28;;;-144.44;94.36
7836;BME280;3963;42.658;23.298;2023-06-04T09:31:13;45524.09;;;-144.44;93.57
7836;BME280;3963;42.658;23.298;2023-06-04T09:33:44;45512.25;;;-144.44;92.55
7836;BME280;3963;42.658;23.298;2023-06-04T09:36:11;45526.09;;;-144.44;92.92
7836;BME280;3963;42.658;23.298;2023-06-04T09:38:38;45532.00;;;-144.44;90.45
7836;BME280;3963;42.658;23.298;2023-06-04T09:41:11;45500.38;;;-144.44;91.05
7836;BME280;3963;42.658;23.298;2023-06-04T09:43:38;45512.25;;;-144.44;92.87
7836;BME280;3963;42.658;23.298;2023-06-04T09:46:13;45492.47;;;-144.44;90.19
7836;BME280;3963;42.658;23.298;2023-06-04T09:48:41;45502.38;;;-144.44;90.97
7836;BME280;3963;42.658;23.298;2023-06-04T09:51:09;45526.09;;;-144.44;90.04
7836;BME280;3963;42.658;23.298;2023-06-04T09:53:36;45526.09;;;-144.44;86.06
7836;BME280;3963;42.658;23.298;2023-06-04T09:56:04;45557.72;;;-144.44;85.41
7836;BME280;3963;42.658;23.298;2023-06-04T09:58:32;45595.25;;;-144.44;81.78
7836;BME280;3963;42.658;23.298;2023-06-04T10:01:00;45520.16;;;-144.44;81.76
7836;BME280;3963;42.658;23.298;2023-06-04T10:03:32;45512.25;;;-144.44;81.08
7836;BME280;3963;42.658;23.298;2023-06-04T10:06:04;45524.09;;;-144.44;81.50
7836;BME280;3963;42.658;23.298;2023-06-04T10:08:32;45535.97;;;-144.44;79.42
7836;BME280;3963;42.658;23.298;2023-06-04T10:11:00;45486.56;;;-144.44;82.27
7836;BME280;3963;42.658;23.298;2023-06-04T10:13:29;45522.13;;;-144.44;82.62
7836;BME280;3963;42.658;23.298;2023-06-04T10:15:57;45506.31;;;-144.44;79.24
7836;BME280;3963;42.658;23.298;2023-06-04T10:18:27;45549.81;;;-144.44;76.89
7836;BME280;3963;42.658;23.298;2023-06-04T10:20:56;45539.91;;;-144.44;76.53
7836;BME280;3963;42.658;23.298;2023-06-04T10:23:23;45486.56;;;-144.44;80.54
7836;BME280;3963;42.658;23.298;2023-06-04T10:25:51;45449.00;;;-144.44;82.29
7836;BME280;3963;42.658;23.298;2023-06-04T10:28:20;45427.25;;;-144.44;85.31
7836;BME280;3963;42.658;23.298;2023-06-04T10:30:47;45443.06;;;-144.44;85.98
7836;BME280;3963;42.658;23.298;2023-06-04T10:33:16;45464.81;;;-144.44;86.06
7836;BME280;3963;42.658;23.298;2023-06-04T10:35:44;45456.91;;;-144.44;85.53
7836;BME280;3963;42.658;23.298;2023-06-04T10:38:13;45460.88;;;-144.44;86.63
7836;BME280;3963;42.658;23.298;2023-06-04T10:40:41;45427.25;;;-144.44;86.21
7836;BME280;3963;42.658;23.298;2023-06-04T10:43:10;45445.06;;;-144.44;88.00
7836;BME280;3963;42.658;23.298;2023-06-04T10:45:38;45435.16;;;-144.44;88.43
7836;BME280;3963;42.658;23.298;2023-06-04T10:48:06;45452.97;;;-144.44;87.00
7836;BME280;3963;42.658;23.298;2023-06-04T10:53:01;45449.00;;;-144.44;88.17
7836;BME280;3963;42.658;23.298;2023-06-04T10:55:30;45476.66;;;-144.44;87.66
7836;BME280;3963;42.658;23.298;2023-06-04T10:57:58;45462.84;;;-144.44;86.73
7836;BME280;3963;42.658;23.298;2023-06-04T11:00:35;45433.19;;;-144.44;87.98
7836;BME280;3963;42.658;23.298;2023-06-04T11:03:01;45419.34;;;-144.44;87.55
7836;BME280;3963;42.658;23.298;2023-06-04T11:05:34;45449.00;;;-144.44;87.95
7836;BME280;3963;42.658;23.298;2023-06-04T11:08:01;45431.22;;;-144.44;87.20
7836;BME280;3963;42.658;23.298;2023-06-04T11:10:33;45460.88;;;-144.44;88.60
7836;BME280;3963;42.658;23.298;2023-06-04T11:13:01;45464.81;;;-144.44;88.30
7836;BME280;3963;42.658;23.298;2023-06-04T11:15:37;45456.91;;;-144.44;88.29
7836;BME280;3963;42.658;23.298;2023-06-04T11:18:04;45450.97;;;-144.44;89.05
7836;BME280;3963;42.658;23.298;2023-06-04T11:20:31;45458.88;;;-144.44;89.37
7836;BME280;3963;42.658;23.298;2023-06-04T11:22:59;45494.47;;;-144.44;89.57
7836;BME280;3963;42.658;23.298;2023-06-04T11:25:29;45470.75;;;-144.44;89.63
7836;BME280;3963;42.658;23.298;2023-06-04T11:27:58;45452.97;;;-144.44;89.05
7836;BME280;3963;42.658;23.298;2023-06-04T11:30:27;45484.56;;;-144.44;89.26
7836;BME280;3963;42.658;23.298;2023-06-04T11:33:01;45496.44;;;-144.44;87.33
7836;BME280;3963;42.658;23.298;2023-06-04T11:35:28;45488.53;;;-144.44;86.39
7836;BME280;3963;42.658;23.298;2023-06-04T11:37:55;45468.78;;;-144.44;86.00
7836;BME280;3963;42.658;23.298;2023-06-04T11:40:23;45456.91;;;-144.44;86.03
7836;BME280;3963;42.658;23.298;2023-06-04T11:42:50;45476.66;;;-144.44;87.37
7836;BME280;3963;42.658;23.298;2023-06-04T11:45:20;45488.53;;;-144.44;88.45
7836;BME280;3963;42.658;23.298;2023-06-04T11:47:48;45484.56;;;-144.44;87.68
7836;BME280;3963;42.658;23.298;2023-06-04T11:50:15;45450.97;;;-144.44;87.46
7836;BME280;3963;42.658;23.298;2023-06-04T11:52:42;45466.78;;;-144.44;88.75
7836;BME280;3963;42.658;23.298;2023-06-04T11:55:09;45452.97;;;-144.44;89.34
7836;BME280;3963;42.658;23.298;2023-06-04T11:57:38;45437.16;;;-144.44;89.85
7836;BME280;3963;42.658;23.298;2023-06-04T12:00:07;45456.91;;;-144.44;91.02
7836;BME280;3963;42.658;23.298;2023-06-04T12:02:37;45476.66;;;-144.44;91.79
7836;BME280;3963;42.658;23.298;2023-06-04T12:05:11;45460.88;;;-144.44;91.15
7836;BME280;3963;42.658;23.298;2023-06-04T12:07:38;45480.63;;;-144.44;92.46
7836;BME280;3963;42.658;23.298;2023-06-04T12:10:05;45496.44;;;-144.44;93.73
7836;BME280;3963;42.658;23.298;2023-06-04T12:12:33;45535.97;;;-144.44;94.25
7836;BME280;3963;42.658;23.298;2023-06-04T12:15:00;45571.53;;;-144.44;97.13
7836;BME280;3963;42.658;23.298;2023-06-04T12:17:27;45628.84;;;-144.44;99.56
7836;BME280;3963;42.658;23.298;2023-06-04T12:19:55;45834.41;;;-144.44;100.00
7836;BME280;3963;42.658;23.298;2023-06-04T12:22:23;45935.22;;;-144.44;100.00
7836;BME280;3963;42.658;23.298;2023-06-04T12:24:53;45903.59;;;-144.44;100.00
7836;BME280;3963;42.658;23.298;2023-06-04T12:27:21;46040.00;;;-144.44;100.00
7836;BME280;3963;42.658;23.298;2023-06-04T12:29:56;46979.06;;;-144.44;100.00
7836;BME280;3963;42.658;23.298;2023-06-04T12:32:23;47544.63;;;-144.44;100.00
7836;BME280;3963;42.658;23.298;2023-06-04T12:34:50;46979.06;;;-144.44;100.00
7836;BME280;3963;42.658;23.298;2023-06-04T12:37:18;46648.88;;;-144.44;100.00
7836;BME280;3963;42.658;23.298;2023-06-04T12:39:45;46354.31;;;-144.44;100.00
7836;BME280;3963;42.658;23.298;2023-06-04T12:42:12;46354.31;;;-144.44;100.00
7836;BME280;3963;42.658;23.298;2023-06-04T12:44:39;46409.66;;;-144.44;100.00
7836;BME280;3963;42.658;23.298;2023-06-04T12:47:06;46476.88;;;-144.44;100.00